createdAt,value
2019-05-25T00:00:54.650Z,85.35
2019-05-25T00:03:27.328Z,85.33
2019-05-25T00:06:00.059Z,85.80
2019-05-25T00:08:32.827Z,86.09
2019-05-25T00:11:05.619Z,86.07
2019-05-25T00:13:38.316Z,85.92
2019-05-25T00:16:11.055Z,85.37
2019-05-25T00:18:43.764Z,85.36
2019-05-25T00:21:16.551Z,85.77
2019-05-25T00:23:49.288Z,86.08
2019-05-25T00:26:22.026Z,86.21
2019-05-25T00:28:54.751Z,86.35
2019-05-25T00:31:27.452Z,86.30
2019-05-25T00:34:00.201Z,86.52
2019-05-25T00:36:33.045Z,86.70
2019-05-25T00:39:07.559Z,87.02
2019-05-25T00:41:40.313Z,87.18
2019-05-25T00:44:13.212Z,87.70
2019-05-25T00:46:45.973Z,87.76
2019-05-25T00:49:18.668Z,86.76
2019-05-25T00:51:51.416Z,86.42
2019-05-25T00:54:27.971Z,87.14
2019-05-25T00:56:58.661Z,87.24
2019-05-25T00:59:31.440Z,86.84
2019-05-25T01:02:04.337Z,86.75
2019-05-25T01:04:37.011Z,86.59
2019-05-25T01:07:09.759Z,86.82
2019-05-25T01:09:42.475Z,87.22
2019-05-25T01:12:15.259Z,87.98
2019-05-25T01:14:48.062Z,87.96
2019-05-25T01:17:20.906Z,87.35
2019-05-25T01:19:53.621Z,87.15
2019-05-25T01:22:26.372Z,87.27
2019-05-25T01:24:59.086Z,87.64
2019-05-25T01:27:31.746Z,88.37
2019-05-25T01:30:05.387Z,88.71
2019-05-25T01:32:38.026Z,89.31
2019-05-25T01:35:12.156Z,89.23
2019-05-25T01:37:48.330Z,89.60
2019-05-25T01:40:19.757Z,89.75
2019-05-25T01:42:52.415Z,90.04
2019-05-25T01:45:25.076Z,90.00
2019-05-25T01:47:57.665Z,89.82
2019-05-25T01:50:30.322Z,89.88
2019-05-25T01:53:02.916Z,89.73
2019-05-25T01:55:35.681Z,89.37
2019-05-25T01:58:08.531Z,89.44
2019-05-25T02:00:41.290Z,89.61
2019-05-25T02:03:13.904Z,89.90
2019-05-25T02:05:46.587Z,89.69
2019-05-25T02:08:19.347Z,89.63
2019-05-25T02:10:51.988Z,89.43
2019-05-25T02:13:24.727Z,89.92
2019-05-25T02:15:57.457Z,90.33
2019-05-25T02:18:30.104Z,90.45
2019-05-25T02:21:02.941Z,90.40
2019-05-25T02:23:35.552Z,90.09
2019-05-25T02:26:08.225Z,90.04
2019-05-25T02:28:41.274Z,90.19
2019-05-25T02:31:13.974Z,90.28
2019-05-25T02:33:46.678Z,90.44
2019-05-25T02:36:20.951Z,90.80
2019-05-25T02:38:53.877Z,91.03
2019-05-25T02:41:26.601Z,91.25
2019-05-25T02:43:59.263Z,91.45
2019-05-25T02:46:31.920Z,91.55
2019-05-25T02:49:04.756Z,91.54
2019-05-25T02:51:37.450Z,91.45
2019-05-25T02:54:10.095Z,91.25
2019-05-25T02:56:42.732Z,91.22
2019-05-25T02:59:15.526Z,91.31
2019-05-25T03:01:48.964Z,91.51
2019-05-25T03:04:22.020Z,91.78
2019-05-25T03:06:55.343Z,92.16
2019-05-25T03:09:30.813Z,92.43
2019-05-25T03:12:03.446Z,92.72
2019-05-25T03:14:36.252Z,92.79
2019-05-25T03:17:08.924Z,92.71
2019-05-25T03:19:41.598Z,92.81
2019-05-25T03:22:14.358Z,92.86
2019-05-25T03:24:47.330Z,92.90
2019-05-25T03:27:20.976Z,92.96
2019-05-25T03:29:53.602Z,92.90
2019-05-25T03:32:26.240Z,92.73
2019-05-25T03:34:59.435Z,92.31
2019-05-25T03:37:32.090Z,91.92
2019-05-25T03:40:05.987Z,91.82
2019-05-25T03:42:38.645Z,91.79
2019-05-25T03:45:12.801Z,92.07
2019-05-25T03:47:45.410Z,92.31
2019-05-25T03:50:18.512Z,92.29
2019-05-25T03:52:51.216Z,92.53
2019-05-25T03:55:23.821Z,92.82
2019-05-25T03:57:56.521Z,93.06
2019-05-25T04:00:37.989Z,93.31
2019-05-25T04:03:10.635Z,93.55
2019-05-25T04:05:43.286Z,93.65
2019-05-25T04:08:17.186Z,93.54
2019-05-25T04:10:49.803Z,93.44
2019-05-25T04:13:22.477Z,92.90
2019-05-25T04:15:55.130Z,92.53
2019-05-25T04:18:27.767Z,92.50
2019-05-25T04:21:00.408Z,92.54
2019-05-25T04:23:33.040Z,92.27
2019-05-25T04:26:19.619Z,91.69
2019-05-25T04:28:40.196Z,90.80
2019-05-25T04:31:12.927Z,89.96
2019-05-25T04:33:45.620Z,88.77
2019-05-25T04:36:18.315Z,88.38
2019-05-25T04:38:51.099Z,88.21
2019-05-25T04:41:23.961Z,87.79
2019-05-25T04:43:56.707Z,87.50
2019-05-25T04:46:29.411Z,86.54
2019-05-25T04:49:02.232Z,86.33
2019-05-25T04:51:37.564Z,85.47
2019-05-25T04:54:10.483Z,84.59
2019-05-25T04:56:43.244Z,84.36
2019-05-25T04:59:15.978Z,84.03
2019-05-25T05:01:48.803Z,82.77
2019-05-25T05:04:22.063Z,83.13
2019-05-25T05:06:54.821Z,81.87
2019-05-25T05:09:27.618Z,82.31
2019-05-25T05:12:00.417Z,81.92
2019-05-25T05:14:33.228Z,82.74
2019-05-25T05:17:06.009Z,81.05
2019-05-25T05:19:38.844Z,80.33
2019-05-25T05:22:11.804Z,80.78
2019-05-25T05:24:44.602Z,81.09
2019-05-25T05:27:17.363Z,80.68
2019-05-25T05:29:50.311Z,79.41
2019-05-25T05:32:27.476Z,77.50
2019-05-25T05:34:57.611Z,77.06
2019-05-25T05:37:31.888Z,76.73
2019-05-25T05:40:05.519Z,76.54
2019-05-25T05:42:41.866Z,77.18
2019-05-25T05:45:15.474Z,75.57
2019-05-25T05:47:51.435Z,75.45
2019-05-25T05:50:24.293Z,73.89
2019-05-25T05:53:00.205Z,73.10
2019-05-25T05:55:33.802Z,68.74
2019-05-25T05:58:06.633Z,69.91
2019-05-25T06:00:39.347Z,67.79
2019-05-25T06:03:12.144Z,66.08
2019-05-25T06:05:45.245Z,67.60
2019-05-25T06:08:19.458Z,65.08
2019-05-25T06:10:57.978Z,66.59
2019-05-25T06:13:30.731Z,66.33
2019-05-25T06:16:03.574Z,63.33
2019-05-25T06:18:36.293Z,63.76
2019-05-25T06:21:09.168Z,63.31
2019-05-25T06:23:41.881Z,62.21
2019-05-25T06:26:14.717Z,61.35
2019-05-25T06:28:47.626Z,63.10
2019-05-25T06:31:20.465Z,63.42
2019-05-25T06:33:53.205Z,63.71
2019-05-25T06:36:25.982Z,65.23
2019-05-25T06:38:58.722Z,63.87
2019-05-25T06:41:31.596Z,65.10
2019-05-25T06:44:04.614Z,63.59
2019-05-25T06:46:39.774Z,66.04
2019-05-25T06:49:11.747Z,61.89
2019-05-25T06:51:44.374Z,64.50
2019-05-25T06:54:17.106Z,62.83
2019-05-25T06:56:49.852Z,59.70
2019-05-25T06:59:22.624Z,59.52
2019-05-25T07:01:55.449Z,58.83
2019-05-25T07:04:28.326Z,58.42
2019-05-25T07:07:01.136Z,60.39
2019-05-25T07:09:33.513Z,59.69
2019-05-25T07:12:06.645Z,63.30
2019-05-25T07:14:39.479Z,59.98
2019-05-25T07:17:12.307Z,57.62
2019-05-25T07:19:45.084Z,58.03
2019-05-25T07:22:17.867Z,52.90
2019-05-25T07:24:50.592Z,50.02
2019-05-25T07:27:23.336Z,47.72
2019-05-25T07:29:56.090Z,53.63
2019-05-25T07:32:28.786Z,53.00
2019-05-25T07:35:01.565Z,49.60
2019-05-25T07:37:34.293Z,48.11
2019-05-25T07:40:07.992Z,50.08
2019-05-25T07:42:40.691Z,49.90
2019-05-25T07:45:15.304Z,51.84
2019-05-25T07:47:48.073Z,53.10
2019-05-25T07:50:21.395Z,53.58
2019-05-25T07:52:54.140Z,53.56
2019-05-25T07:55:26.861Z,53.95
2019-05-25T07:58:15.662Z,53.30
2019-05-25T08:00:34.127Z,53.40
2019-05-25T08:03:06.911Z,50.10
2019-05-25T08:05:39.658Z,46.66
2019-05-25T08:08:12.402Z,48.50
2019-05-25T08:10:45.165Z,49.85
2019-05-25T08:13:17.951Z,47.64
2019-05-25T08:15:50.789Z,48.02
2019-05-25T08:18:23.515Z,43.22
2019-05-25T08:20:56.307Z,44.61
2019-05-25T08:23:29.108Z,47.94
2019-05-25T08:26:01.977Z,49.27
2019-05-25T08:28:34.686Z,49.59
2019-05-25T08:31:07.417Z,46.36
2019-05-25T08:33:40.099Z,48.64
2019-05-25T08:36:12.859Z,47.41
2019-05-25T08:38:45.555Z,45.40
2019-05-25T08:41:18.359Z,46.77
2019-05-25T08:43:51.181Z,39.18
2019-05-25T08:46:23.948Z,40.02
2019-05-25T08:48:56.852Z,39.61
2019-05-25T08:51:29.668Z,40.69
2019-05-25T08:54:02.579Z,35.33
2019-05-25T08:56:35.302Z,40.74
2019-05-25T08:59:08.115Z,39.11
2019-05-25T09:01:40.935Z,40.09
2019-05-25T09:04:13.651Z,39.72
2019-05-25T09:06:46.454Z,42.27
2019-05-25T09:09:19.169Z,35.77
2019-05-25T09:11:52.016Z,37.00
2019-05-25T09:14:24.869Z,42.83
2019-05-25T09:16:57.570Z,38.19
2019-05-25T09:19:30.346Z,40.07
2019-05-25T09:22:04.036Z,36.44
2019-05-25T09:24:37.094Z,38.64
2019-05-25T09:27:09.952Z,39.69
2019-05-25T09:29:41.928Z,42.19
2019-05-25T09:32:14.663Z,34.35
2019-05-25T09:34:47.422Z,36.08
2019-05-25T09:37:20.268Z,36.23
2019-05-25T09:39:53.064Z,37.38
2019-05-25T09:42:25.800Z,39.43
2019-05-25T09:44:58.563Z,37.85
2019-05-25T09:47:31.363Z,39.72
2019-05-25T09:50:04.746Z,35.89
2019-05-25T09:52:37.497Z,37.96
2019-05-25T09:55:11.948Z,36.25
2019-05-25T09:57:44.664Z,38.72
2019-05-25T10:00:19.333Z,39.82
2019-05-25T10:02:52.291Z,40.97
2019-05-25T10:05:25.162Z,39.29
2019-05-25T10:07:57.886Z,40.42
2019-05-25T10:10:30.629Z,42.37
2019-05-25T10:13:03.392Z,43.18
2019-05-25T10:15:36.161Z,45.20
2019-05-25T10:18:08.140Z,49.97
2019-05-25T10:20:40.981Z,50.35
2019-05-25T10:23:13.917Z,56.19
2019-05-25T10:25:46.603Z,62.33
2019-05-25T10:28:19.411Z,68.54
2019-05-25T10:30:52.129Z,73.54
2019-05-25T10:33:24.975Z,70.73
2019-05-25T10:35:57.683Z,77.53
2019-05-25T10:38:30.730Z,80.61
2019-05-25T10:41:03.503Z,81.07
2019-05-25T10:43:36.271Z,82.34
2019-05-25T10:46:12.191Z,82.60
2019-05-25T10:48:45.007Z,83.34
2019-05-25T10:51:17.753Z,82.30
2019-05-25T10:53:52.818Z,82.36
2019-05-25T10:56:31.459Z,76.87
2019-05-25T10:59:04.255Z,74.66
2019-05-25T11:01:37.153Z,72.59
2019-05-25T11:04:09.946Z,67.75
2019-05-25T11:06:46.943Z,63.53
2019-05-25T11:09:19.955Z,65.90
2019-05-25T11:11:52.683Z,69.43
2019-05-25T11:14:25.533Z,74.61
2019-05-25T11:16:58.304Z,74.61
2019-05-25T11:19:31.071Z,73.62
2019-05-25T11:22:03.805Z,72.97
2019-05-25T11:24:36.664Z,75.04
2019-05-25T11:27:09.515Z,71.19
2019-05-25T11:29:42.292Z,66.16
2019-05-25T11:32:15.015Z,67.43
2019-05-25T11:34:48.074Z,70.76
2019-05-25T11:37:20.759Z,71.09
2019-05-25T11:39:53.552Z,64.96
2019-05-25T11:42:26.448Z,64.66
2019-05-25T11:44:59.268Z,61.77
2019-05-25T11:47:32.154Z,59.36
2019-05-25T11:50:05.886Z,58.74
2019-05-25T11:52:38.971Z,58.57
2019-05-25T11:55:12.887Z,59.06
2019-05-25T11:57:45.572Z,59.60
2019-05-25T12:00:26.289Z,65.36
2019-05-25T12:02:55.088Z,63.75
2019-05-25T12:05:27.986Z,64.75
2019-05-25T12:08:00.742Z,65.16
2019-05-25T12:10:33.479Z,69.79
2019-05-25T12:13:06.231Z,74.18
2019-05-25T12:15:39.021Z,79.93
2019-05-25T12:18:11.922Z,81.85
2019-05-25T12:20:44.636Z,81.83
2019-05-25T12:23:17.382Z,81.97
2019-05-25T12:25:50.249Z,83.79
2019-05-25T12:28:22.947Z,81.58
2019-05-25T12:30:55.656Z,77.41
2019-05-25T12:33:28.433Z,78.85
2019-05-25T12:36:01.282Z,82.27
2019-05-25T12:38:34.026Z,80.82
2019-05-25T12:41:06.764Z,82.27
2019-05-25T12:43:39.645Z,83.41
2019-05-25T12:46:12.529Z,76.09
2019-05-25T12:48:45.371Z,82.33
2019-05-25T12:51:18.130Z,78.12
2019-05-25T12:53:50.941Z,81.22
2019-05-25T12:56:23.747Z,81.59
2019-05-25T12:58:56.501Z,84.97
2019-05-25T13:01:29.307Z,86.04
2019-05-25T13:04:02.124Z,86.71
2019-05-25T13:06:35.001Z,85.50
2019-05-25T13:09:08.998Z,85.23
2019-05-25T13:11:41.734Z,84.58
2019-05-25T13:14:15.168Z,81.97
2019-05-25T13:16:48.194Z,81.75
2019-05-25T13:19:20.926Z,81.04
2019-05-25T13:21:53.647Z,74.91
2019-05-25T13:24:26.403Z,74.55
2019-05-25T13:26:59.244Z,73.85
2019-05-25T13:29:31.939Z,72.84
2019-05-25T13:32:04.793Z,77.66
2019-05-25T13:34:37.540Z,70.31
2019-05-25T13:37:10.339Z,72.28
2019-05-25T13:39:43.026Z,56.74
2019-05-25T13:42:15.974Z,65.20
2019-05-25T13:44:48.919Z,60.06
2019-05-25T13:47:21.706Z,65.87
2019-05-25T13:49:54.487Z,54.39
2019-05-25T13:52:27.317Z,58.60
2019-05-25T13:55:00.083Z,65.82
2019-05-25T13:57:32.921Z,65.44
2019-05-25T14:00:07.148Z,53.83
2019-05-25T14:02:40.271Z,56.16
2019-05-25T14:05:13.861Z,57.43
2019-05-25T14:07:46.599Z,60.05
2019-05-25T14:10:19.557Z,56.21
2019-05-25T14:12:52.384Z,57.75
2019-05-25T14:15:25.229Z,58.56
2019-05-25T14:17:57.984Z,55.86
2019-05-25T14:20:30.827Z,57.06
2019-05-25T14:23:03.586Z,59.67
2019-05-25T14:25:36.368Z,57.71
2019-05-25T14:28:09.448Z,58.73
2019-05-25T14:30:42.421Z,65.18
2019-05-25T14:33:15.239Z,61.40
2019-05-25T14:35:48.079Z,57.05
2019-05-25T14:38:20.801Z,56.34
2019-05-25T14:40:53.585Z,49.20
2019-05-25T14:43:25.529Z,50.46
2019-05-25T14:45:58.401Z,45.55
2019-05-25T14:48:31.207Z,54.98
2019-05-25T14:51:04.956Z,51.19
2019-05-25T14:53:37.628Z,56.46
2019-05-25T14:56:10.446Z,58.81
2019-05-25T14:58:42.369Z,60.50
2019-05-25T15:01:18.297Z,62.69
2019-05-25T15:03:51.335Z,63.40
2019-05-25T15:06:32.412Z,64.03
2019-05-25T15:09:16.812Z,66.04
2019-05-25T15:11:53.525Z,66.85
2019-05-25T15:14:24.131Z,68.66
2019-05-25T15:16:56.938Z,70.36
2019-05-25T15:19:29.677Z,69.54
2019-05-25T15:22:04.629Z,72.37
2019-05-25T15:24:37.525Z,75.39
2019-05-25T15:27:10.337Z,76.69
2019-05-25T15:29:43.239Z,76.84
2019-05-25T15:32:20.361Z,79.69
2019-05-25T15:34:50.507Z,81.33
2019-05-25T15:37:23.428Z,83.35
2019-05-25T15:39:56.319Z,84.48
2019-05-25T15:42:29.017Z,86.30
2019-05-25T15:45:01.746Z,86.22
2019-05-25T15:47:35.639Z,87.68
2019-05-25T15:50:11.585Z,88.31
2019-05-25T15:52:44.308Z,88.33
2019-05-25T15:55:17.239Z,86.68
2019-05-25T15:57:50.017Z,87.80
2019-05-25T16:00:41.214Z,89.24
2019-05-25T16:03:14.181Z,90.39
2019-05-25T16:05:47.662Z,90.77
2019-05-25T16:08:21.938Z,91.64
2019-05-25T16:10:54.674Z,90.24
2019-05-25T16:13:27.766Z,90.57
2019-05-25T16:16:00.472Z,90.56
2019-05-25T16:18:33.325Z,91.22
2019-05-25T16:21:06.144Z,91.38
2019-05-25T16:23:38.869Z,91.55
2019-05-25T16:26:11.655Z,92.16
2019-05-25T16:28:44.482Z,92.61
2019-05-25T16:31:17.369Z,92.86
2019-05-25T16:33:50.150Z,92.55
2019-05-25T16:36:22.830Z,92.28
2019-05-25T16:38:55.553Z,92.08
2019-05-25T16:41:28.562Z,92.33
2019-05-25T16:44:01.536Z,92.80
2019-05-25T16:46:34.494Z,93.21
2019-05-25T16:49:07.314Z,92.68
2019-05-25T16:51:40.012Z,92.36
2019-05-25T16:54:12.902Z,91.68
2019-05-25T16:56:48.042Z,91.48
2019-05-25T16:59:20.802Z,91.06
2019-05-25T17:01:53.646Z,91.07
2019-05-25T17:04:26.426Z,90.97
2019-05-25T17:06:59.197Z,89.08
2019-05-25T17:09:31.952Z,88.77
2019-05-25T17:12:04.910Z,87.77
2019-05-25T17:14:37.705Z,87.33
2019-05-25T17:17:10.608Z,87.77
2019-05-25T17:19:43.479Z,88.67
2019-05-25T17:22:16.269Z,85.56
2019-05-25T17:24:49.023Z,85.57
2019-05-25T17:27:21.711Z,83.99
2019-05-25T17:29:54.452Z,86.58
2019-05-25T17:32:27.219Z,87.62
2019-05-25T17:35:00.039Z,86.03
2019-05-25T17:37:33.063Z,86.92
2019-05-25T17:40:07.420Z,85.74
2019-05-25T17:42:40.148Z,87.46
2019-05-25T17:45:13.549Z,87.36
2019-05-25T17:47:46.269Z,86.42
2019-05-25T17:50:19.054Z,85.23
2019-05-25T17:52:51.787Z,85.69
2019-05-25T17:55:24.539Z,86.34
2019-05-25T17:57:57.283Z,87.09
2019-05-25T18:00:43.958Z,87.23
2019-05-25T18:03:17.781Z,86.94
2019-05-25T18:05:50.636Z,85.90
2019-05-25T18:08:23.407Z,85.06
2019-05-25T18:10:56.105Z,86.59
2019-05-25T18:13:29.308Z,88.04
2019-05-25T18:16:02.210Z,89.05
2019-05-25T18:18:34.978Z,90.44
2019-05-25T18:21:07.939Z,90.15
2019-05-25T18:23:40.745Z,89.48
2019-05-25T18:26:13.581Z,89.84
2019-05-25T18:28:46.272Z,88.53
2019-05-25T18:31:19.115Z,88.09
2019-05-25T18:33:51.893Z,88.85
2019-05-25T18:36:24.630Z,90.23
2019-05-25T18:38:57.535Z,90.87
2019-05-25T18:41:30.210Z,91.28
2019-05-25T18:44:03.125Z,91.69
2019-05-25T18:46:35.891Z,92.32
2019-05-25T18:49:08.756Z,92.93
2019-05-25T18:51:41.570Z,93.43
2019-05-25T18:54:14.315Z,93.87
2019-05-25T18:56:47.186Z,94.33
2019-05-25T18:59:21.186Z,94.42
2019-05-25T19:01:53.898Z,94.45
2019-05-25T19:04:43.182Z,94.60
2019-05-25T19:07:01.123Z,94.70
2019-05-25T19:09:33.890Z,94.83
2019-05-25T19:12:06.924Z,94.92
2019-05-25T19:14:39.906Z,94.93
2019-05-25T19:17:14.430Z,94.98
2019-05-25T19:19:47.305Z,95.07
2019-05-25T19:22:19.466Z,95.11
2019-05-25T19:24:52.331Z,95.18
2019-05-25T19:27:24.394Z,95.30
2019-05-25T19:29:57.155Z,95.38
2019-05-25T19:32:29.915Z,95.50
2019-05-25T19:35:02.673Z,95.64
2019-05-25T19:37:35.443Z,95.76
2019-05-25T19:40:11.366Z,95.85
2019-05-25T19:42:44.114Z,95.96
2019-05-25T19:45:17.300Z,96.02
2019-05-25T19:47:50.183Z,96.10
2019-05-25T19:50:23.408Z,96.14
2019-05-25T19:52:56.266Z,96.15
2019-05-25T19:55:29.120Z,96.10
2019-05-25T19:58:01.889Z,95.53
2019-05-25T20:00:34.812Z,95.23
2019-05-25T20:03:07.571Z,95.12
2019-05-25T20:05:40.374Z,95.12
2019-05-25T20:08:13.132Z,95.21
2019-05-25T20:10:45.856Z,95.31
2019-05-25T20:13:18.767Z,95.47
2019-05-25T20:15:51.564Z,95.67
2019-05-25T20:18:24.295Z,95.80
2019-05-25T20:20:57.053Z,95.91
2019-05-25T20:23:29.847Z,95.97
2019-05-25T20:26:03.724Z,95.91
2019-05-25T20:28:36.407Z,95.85
2019-05-25T20:31:09.212Z,95.91
2019-05-25T20:33:41.881Z,96.01
2019-05-25T20:36:14.614Z,96.10
2019-05-25T20:38:47.498Z,96.18
2019-05-25T20:41:20.257Z,96.26
2019-05-25T20:43:53.126Z,96.35
2019-05-25T20:46:25.941Z,96.44
2019-05-25T20:48:58.830Z,96.45
2019-05-25T20:51:31.637Z,96.48
2019-05-25T20:54:04.429Z,96.35
2019-05-25T20:56:37.171Z,96.29
2019-05-25T20:59:10.109Z,96.30
2019-05-25T21:01:43.263Z,96.33
2019-05-25T21:04:16.089Z,96.39
2019-05-25T21:06:48.837Z,96.45
2019-05-25T21:09:21.578Z,96.48
2019-05-25T21:11:56.070Z,96.52
2019-05-25T21:14:28.725Z,96.58
2019-05-25T21:17:01.503Z,96.55
2019-05-25T21:19:34.295Z,96.58
2019-05-25T21:22:07.455Z,96.64
2019-05-25T21:24:40.240Z,96.58
2019-05-25T21:27:12.955Z,96.58
2019-05-25T21:29:45.710Z,96.55
2019-05-25T21:32:18.426Z,96.49
2019-05-25T21:34:51.181Z,96.58
2019-05-25T21:37:23.914Z,96.67
2019-05-25T21:39:56.754Z,96.68
2019-05-25T21:42:29.572Z,96.67
2019-05-25T21:45:02.394Z,96.68
2019-05-25T21:47:35.117Z,96.64
2019-05-25T21:50:09.180Z,96.68
2019-05-25T21:52:42.075Z,96.81
2019-05-25T21:55:15.060Z,96.95
2019-05-25T21:57:47.798Z,96.95
2019-05-25T22:00:23.992Z,96.96
2019-05-25T22:02:56.711Z,96.90
2019-05-25T22:05:30.962Z,96.86
2019-05-25T22:08:04.101Z,96.88
2019-05-25T22:10:36.830Z,96.94
2019-05-25T22:13:23.774Z,96.99
2019-05-25T22:15:44.055Z,97.09
2019-05-25T22:18:16.771Z,97.08
2019-05-25T22:20:49.791Z,97.06
2019-05-25T22:23:22.567Z,97.09
2019-05-25T22:25:55.273Z,97.04
2019-05-25T22:28:41.930Z,97.01
2019-05-25T22:31:02.561Z,97.06
2019-05-25T22:33:35.296Z,97.11
2019-05-25T22:36:08.366Z,97.12
2019-05-25T22:38:41.069Z,97.05
2019-05-25T22:41:13.779Z,96.95
2019-05-25T22:43:46.474Z,96.93
2019-05-25T22:46:19.293Z,96.99
2019-05-25T22:48:52.186Z,97.10
2019-05-25T22:51:24.909Z,97.14
2019-05-25T22:53:59.765Z,97.21
2019-05-25T22:56:32.738Z,97.22
2019-05-25T22:59:05.580Z,97.29
2019-05-25T23:01:38.287Z,97.31
2019-05-25T23:04:11.064Z,97.34
2019-05-25T23:06:57.118Z,97.45
2019-05-25T23:09:18.236Z,97.47
2019-05-25T23:11:51.173Z,97.50
2019-05-25T23:14:23.751Z,97.60
2019-05-25T23:16:56.483Z,97.71
2019-05-25T23:19:29.343Z,97.83
2019-05-25T23:22:02.172Z,97.97
2019-05-25T23:24:34.958Z,98.05
2019-05-25T23:27:07.772Z,98.15
2019-05-25T23:29:40.881Z,98.25
2019-05-25T23:32:13.651Z,98.24
2019-05-25T23:34:46.388Z,98.27
2019-05-25T23:37:19.111Z,98.28
2019-05-25T23:39:51.752Z,98.29
2019-05-25T23:42:24.475Z,98.31
2019-05-25T23:44:57.238Z,98.29
2019-05-25T23:47:29.873Z,98.21
2019-05-25T23:50:02.602Z,98.17
2019-05-25T23:52:35.525Z,98.08
2019-05-25T23:55:08.680Z,98.02
2019-05-25T23:57:41.502Z,97.97
